Fresno, California
Current Conditions -  °F | °C
As of 3:53 AM on Saturday 25 Oct 2014 (Local Time) from KFAT Reporting Station
Scattered Clouds Scattered Clouds  
Wind Chill: 61°   Ceiling: Unl
Heat Index: 61°   Visibility: 9mi
Dew Point: 45°   Wind: 3mph
Humidity: 56%   Direction: 340°NNW
Pressure: 29.96"   Gusts: NA
Location:  36.74°N, 119.78°W
Report Text: KFAT 251053Z 34003KT 9SM SCT250 16/07 A2996 RMK AO2 SLP143 T01610072
Loading
Personal Weather Stations






























Interactive Weather Map New forecast layout! Learn more

10-Day Weather Forecast

Advertisements
Track Severe Weather on mobile